Time;durP1;ratioP1;P1;durP2;ratioP2;P2;SDS_P1;SDS_P2;PMS_P1;PMS_P2;Temp;Humidity;BMP_temperature;BMP_pressure;BME280_temperature;BME280_humidity;BME280_pressure;Samples;Min_cycle;Max_cycle;Signal;HPM_P1;HPM_P2
2022/05/25 17:49:22;;;;;;;1.90;0.57;;;18.20;92.10;;;;;;5085128;28;20390;-42
2022/05/25 17:51:49;;;;;;;2.70;0.98;;;18.40;92.80;;;;;;5083704;28;20289;-40
2022/05/25 17:54:15;;;;;;;2.10;0.68;;;18.40;92.70;;;;;;5084975;28;20028;-41
2022/05/25 17:56:42;;;;;;;0.90;0.40;;;18.40;92.70;;;;;;5084920;28;20074;-41
2022/05/25 17:59:12;;;;;;;3.17;0.70;;;18.30;92.70;;;;;;5085049;28;20090;-41
2022/05/25 18:01:38;;;;;;;2.15;0.65;;;18.20;92.80;;;;;;5085184;28;20025;-41
2022/05/25 18:04:04;;;;;;;2.17;0.60;;;18.20;92.80;;;;;;5043120;28;20024;-34
2022/05/25 18:06:32;;;;;;;1.77;0.50;;;18.20;92.90;;;;;;5050866;28;20501;-40
2022/05/25 18:09:03;;;;;;;3.63;0.80;;;18.10;92.90;;;;;;5074089;28;20115;-42
2022/05/25 18:11:32;;;;;;;1.38;0.63;;;18.10;92.90;;;;;;5082489;28;20484;-40
2022/05/25 18:13:59;;;;;;;3.00;0.70;;;18.00;92.90;;;;;;5083963;28;20055;-42
2022/05/25 18:16:25;;;;;;;2.08;0.70;;;18.00;92.90;;;;;;5083542;28;20475;-41
2022/05/25 18:18:50;;;;;;;1.10;0.60;;;17.90;93.10;;;;;;5083517;28;20020;-42
2022/05/25 18:21:16;;;;;;;2.08;0.70;;;17.90;93.10;;;;;;5083242;28;20457;-40
2022/05/25 18:23:41;;;;;;;4.00;1.10;;;17.80;93.20;;;;;;5083450;28;20434;-41
2022/05/25 18:26:07;;;;;;;1.83;0.70;;;17.80;93.20;;;;;;5082963;28;20028;-42
2022/05/25 18:28:32;;;;;;;2.25;0.70;;;17.80;93.20;;;;;;5083533;28;20131;-41
2022/05/25 18:30:58;;;;;;;1.95;0.70;;;17.80;93.20;;;;;;5083833;28;20021;-39
2022/05/25 18:33:24;;;;;;;2.60;0.90;;;17.70;93.30;;;;;;5082196;28;20028;-40
2022/05/25 18:35:49;;;;;;;3.22;0.80;;;17.60;93.50;;;;;;5083189;28;20012;-40
2022/05/25 18:38:15;;;;;;;1.88;0.80;;;17.60;93.60;;;;;;5083481;28;20423;-41
2022/05/25 18:40:42;;;;;;;1.27;0.60;;;17.50;93.80;;;;;;5082714;28;20026;-41
2022/05/25 18:43:07;;;;;;;1.98;0.60;;;17.50;93.90;;;;;;5083581;28;20108;-41
2022/05/25 18:45:34;;;;;;;2.22;0.88;;;17.40;94.00;;;;;;5083289;28;20116;-41
2022/05/25 18:48:00;;;;;;;3.80;0.98;;;17.40;94.10;;;;;;5082256;28;20063;-41
2022/05/25 18:50:29;;;;;;;5.93;0.70;;;17.40;94.30;;;;;;5082775;28;20489;-41
2022/05/25 18:52:56;;;;;;;2.88;0.75;;;17.40;94.40;;;;;;5082781;28;20051;-42
2022/05/25 18:55:22;;;;;;;3.13;0.73;;;17.40;94.60;;;;;;5082874;28;20371;-41
2022/05/25 18:57:48;;;;;;;2.45;1.08;;;17.30;94.50;;;;;;5082917;28;20455;-42
2022/05/25 19:00:14;;;;;;;1.70;0.82;;;17.30;94.60;;;;;;5071720;28;20085;-40
2022/05/25 19:02:40;;;;;;;1.02;0.90;;;17.30;94.70;;;;;;5069183;28;20019;-42
2022/05/25 19:05:07;;;;;;;2.67;1.00;;;17.30;94.70;;;;;;5069476;28;20129;-41
2022/05/25 19:07:33;;;;;;;2.58;0.80;;;17.20;94.80;;;;;;5068499;28;20075;-42
2022/05/25 19:09:59;;;;;;;2.10;0.80;;;17.20;94.90;;;;;;5070354;28;20074;-41
2022/05/25 19:12:24;;;;;;;3.10;0.80;;;17.20;95.10;;;;;;5068414;28;20032;-42
2022/05/25 19:14:50;;;;;;;1.38;0.65;;;17.10;95.20;;;;;;5069422;28;20032;-41
2022/05/25 19:17:16;;;;;;;5.75;1.10;;;17.10;95.30;;;;;;5068621;28;20024;-40
2022/05/25 19:19:43;;;;;;;1.00;0.77;;;17.10;95.50;;;;;;5069190;28;20032;-40
2022/05/25 19:22:20;;;;;;;2.15;0.70;;;17.00;95.60;;;;;;5068529;28;20073;-40
2022/05/25 19:24:49;;;;;;;3.90;0.80;;;17.00;95.90;;;;;;5069356;28;20029;-41
2022/05/25 19:27:15;;;;;;;1.95;0.70;;;16.90;96.30;;;;;;5068584;28;20058;-41
2022/05/25 19:29:40;;;;;;;2.45;0.63;;;16.80;96.40;;;;;;5068057;28;20056;-41
2022/05/25 19:32:06;;;;;;;4.60;0.98;;;16.80;96.90;;;;;;5068504;28;20024;-42
2022/05/25 19:34:32;;;;;;;2.95;0.70;;;16.70;97.10;;;;;;5068593;28;20044;-41
2022/05/25 19:36:59;;;;;;;2.05;0.77;;;16.60;97.40;;;;;;5068011;28;20031;-41
2022/05/25 19:39:30;;;;;;;1.33;0.57;;;16.60;97.60;;;;;;5068861;28;20044;-41
2022/05/25 19:41:59;;;;;;;1.67;0.88;;;16.50;97.70;;;;;;5069054;28;20040;-42
2022/05/25 19:44:30;;;;;;;2.38;0.70;;;16.50;97.80;;;;;;5067519;28;20066;-41
2022/05/25 19:46:57;;;;;;;2.57;0.60;;;16.40;98.00;;;;;;5068600;28;20027;-38
2022/05/25 19:52:09;;;;;;;3.83;0.70;;;16.40;98.10;;;;;;5069043;28;20124;-41
2022/05/25 19:54:35;;;;;;;2.47;0.80;;;16.40;98.30;;;;;;5067979;28;20024;-41
2022/05/25 19:57:01;;;;;;;2.20;0.68;;;16.40;98.50;;;;;;5068425;28;20041;-40
2022/05/25 19:59:27;;;;;;;2.85;1.10;;;16.40;98.50;;;;;;5068097;28;20016;-41
2022/05/25 20:01:53;;;;;;;3.10;1.33;;;16.40;98.60;;;;;;5068908;28;20025;-40
2022/05/25 20:04:19;;;;;;;4.18;1.80;;;16.30;98.60;;;;;;5067375;28;20127;-42
2022/05/25 20:06:44;;;;;;;3.55;0.88;;;16.40;98.60;;;;;;5068628;28;20067;-42
2022/05/25 20:09:12;;;;;;;1.83;0.90;;;16.40;98.70;;;;;;5068243;28;20580;-40
2022/05/25 20:11:38;;;;;;;1.95;0.70;;;16.30;98.60;;;;;;5066344;28;20021;-41
2022/05/25 20:14:06;;;;;;;4.13;0.80;;;16.40;98.70;;;;;;5067984;28;20691;-40
2022/05/25 20:16:32;;;;;;;0.60;0.60;;;16.40;98.80;;;;;;5068148;28;20607;-42
2022/05/25 20:18:58;;;;;;;2.67;1.20;;;16.40;98.90;;;;;;5067319;28;20027;-39
2022/05/25 20:21:24;;;;;;;1.25;0.90;;;16.40;99.30;;;;;;5067963;28;20021;-42
2022/05/25 20:23:49;;;;;;;1.58;0.90;;;16.30;99.40;;;;;;5065603;28;20054;-43
2022/05/25 20:26:15;;;;;;;0.80;0.73;;;16.20;99.70;;;;;;5064834;28;20069;-40
2022/05/25 20:28:40;;;;;;;1.20;1.08;;;16.20;99.90;;;;;;5067043;28;20032;-41
2022/05/25 20:31:06;;;;;;;3.22;1.00;;;16.10;99.90;;;;;;5066888;28;20070;-41
2022/05/25 20:33:31;;;;;;;3.55;1.20;;;16.10;99.90;;;;;;5065575;28;20464;-41
2022/05/25 20:35:59;;;;;;;1.65;0.80;;;16.00;99.90;;;;;;5066625;28;20028;-41
2022/05/25 20:38:25;;;;;;;1.85;1.05;;;16.00;99.90;;;;;;5065444;28;20052;-40
2022/05/25 20:40:52;;;;;;;1.55;1.00;;;16.00;99.90;;;;;;5066606;28;20348;-42
2022/05/25 20:43:18;;;;;;;1.08;0.98;;;16.00;99.90;;;;;;5066595;28;20028;-40
2022/05/25 20:45:46;;;;;;;2.22;1.10;;;16.00;99.90;;;;;;5066015;28;20058;-41
2022/05/25 20:48:12;;;;;;;1.85;1.15;;;16.00;99.90;;;;;;5046704;28;20056;-41
2022/05/25 20:50:38;;;;;;;1.50;1.05;;;15.90;99.90;;;;;;5059580;28;20033;-42
2022/05/25 20:53:04;;;;;;;2.10;1.00;;;15.90;99.90;;;;;;5066555;28;20035;-38
2022/05/25 20:55:30;;;;;;;2.78;1.33;;;15.90;99.90;;;;;;5066110;28;20012;-39
2022/05/25 20:57:56;;;;;;;1.10;1.00;;;15.90;99.90;;;;;;5067100;28;20550;-41
2022/05/25 21:00:35;;;;;;;2.65;1.02;;;16.00;99.90;;;;;;5064993;28;20518;-40
2022/05/25 21:03:02;;;;;;;1.60;1.17;;;16.00;99.90;;;;;;5066530;28;20107;-40
2022/05/25 21:05:31;;;;;;;2.75;1.42;;;16.00;99.90;;;;;;5065337;28;20032;-41
2022/05/25 21:07:57;;;;;;;3.83;1.20;;;16.00;99.90;;;;;;5066260;28;20108;-38
2022/05/25 21:10:24;;;;;;;1.45;1.30;;;16.00;99.90;;;;;;5065700;28;20028;-41
2022/05/25 21:12:52;;;;;;;2.30;1.15;;;16.00;99.90;;;;;;5066586;28;20020;-37
2022/05/25 21:15:19;;;;;;;2.50;1.48;;;16.00;99.90;;;;;;5066292;28;20105;-42
2022/05/25 21:17:45;;;;;;;1.83;1.17;;;16.00;99.90;;;;;;5067502;28;20395;-35
2022/05/25 21:20:13;;;;;;;1.88;1.30;;;16.00;99.90;;;;;;5068090;28;20040;-40
2022/05/25 21:22:39;;;;;;;2.03;1.20;;;16.00;99.90;;;;;;5066552;28;20013;-39
2022/05/25 21:25:05;;;;;;;5.50;1.48;;;16.10;99.90;;;;;;5066732;28;20078;-39
2022/05/25 21:27:31;;;;;;;2.47;1.60;;;16.10;99.90;;;;;;5065203;28;20060;-42
2022/05/25 21:29:56;;;;;;;1.38;1.10;;;16.10;99.90;;;;;;5066075;28;20567;-41
2022/05/25 21:35:07;;;;;;;2.38;1.40;;;16.10;99.90;;;;;;5065219;28;20125;-40
2022/05/25 21:37:34;;;;;;;1.73;1.25;;;16.10;99.90;;;;;;5065121;28;20024;-42
2022/05/25 21:40:01;;;;;;;2.90;1.25;;;16.10;99.90;;;;;;5066339;28;20028;-40
2022/05/25 21:42:26;;;;;;;1.25;1.10;;;16.10;99.90;;;;;;5064354;28;20487;-41
2022/05/25 21:44:52;;;;;;;3.63;2.08;;;16.10;99.90;;;;;;5065612;28;20016;-40
2022/05/25 21:50:03;;;;;;;4.05;1.48;;;16.10;99.90;;;;;;5065562;28;20565;-40
2022/05/25 21:52:33;;;;;;;1.65;1.30;;;16.10;99.90;;;;;;5065010;28;20028;-40
2022/05/25 21:54:59;;;;;;;3.75;1.20;;;16.20;99.90;;;;;;5066470;28;20037;-39
2022/05/25 21:57:25;;;;;;;1.60;1.02;;;16.10;99.90;;;;;;5064852;28;20352;-40
2022/05/25 21:59:51;;;;;;;1.48;1.10;;;16.20;99.90;;;;;;5066688;28;20395;-41
2022/05/25 22:02:21;;;;;;;3.53;1.42;;;16.10;99.90;;;;;;5066250;28;20021;-40
2022/05/25 22:04:47;;;;;;;1.33;1.20;;;16.20;99.90;;;;;;5065453;28;20032;-41
2022/05/25 22:07:14;;;;;;;3.30;1.58;;;16.20;99.90;;;;;;5066508;28;20408;-40
2022/05/25 22:09:39;;;;;;;2.05;1.45;;;16.20;99.90;;;;;;5066391;28;20035;-42
2022/05/25 22:12:07;;;;;;;3.83;1.92;;;16.20;99.90;;;;;;5065862;28;20024;-40
2022/05/25 22:14:34;;;;;;;2.25;1.73;;;16.20;99.90;;;;;;5065933;28;20282;-41
2022/05/25 22:17:00;;;;;;;2.20;1.55;;;16.30;99.90;;;;;;5065518;28;20025;-41
2022/05/25 22:19:26;;;;;;;3.20;1.60;;;16.30;99.90;;;;;;5066355;28;20039;-40
2022/05/25 22:21:52;;;;;;;2.38;1.67;;;16.30;99.90;;;;;;5067096;28;20036;-41
2022/05/25 22:24:18;;;;;;;4.05;2.00;;;16.30;99.90;;;;;;5064996;28;20548;-41
2022/05/25 22:26:44;;;;;;;1.73;1.50;;;16.30;99.90;;;;;;5066826;28;20044;-41
2022/05/25 22:29:10;;;;;;;2.55;1.75;;;16.30;99.90;;;;;;5066064;28;20028;-41
2022/05/25 22:31:36;;;;;;;3.65;2.00;;;16.30;99.90;;;;;;5064726;28;20029;-40
2022/05/25 22:34:03;;;;;;;3.05;2.17;;;16.30;99.90;;;;;;5066566;28;20032;-43
2022/05/25 22:36:30;;;;;;;2.00;1.73;;;16.30;99.90;;;;;;5070233;28;20062;-39
2022/05/25 22:38:56;;;;;;;3.50;2.67;;;16.40;99.90;;;;;;5069220;28;20487;-40
2022/05/25 22:41:23;;;;;;;4.18;2.90;;;16.30;99.90;;;;;;5069256;28;20494;-41
2022/05/25 22:43:48;;;;;;;3.78;2.80;;;16.30;99.90;;;;;;5070005;28;20101;-41
2022/05/25 22:46:14;;;;;;;2.90;2.47;;;16.30;99.90;;;;;;5068667;28;20067;-41
2022/05/25 22:48:39;;;;;;;3.90;3.08;;;16.30;99.90;;;;;;5069084;28;20044;-42
2022/05/25 22:51:05;;;;;;;2.92;2.70;;;16.30;99.90;;;;;;5070042;28;20066;-41
2022/05/25 22:53:31;;;;;;;4.22;3.83;;;16.30;99.90;;;;;;5068726;28;20489;-42
2022/05/25 22:56:00;;;;;;;3.95;3.50;;;16.30;99.90;;;;;;5069913;28;20058;-42
2022/05/25 22:58:26;;;;;;;4.00;3.60;;;16.30;99.90;;;;;;5068758;28;20028;-41
2022/05/25 23:00:52;;;;;;;3.83;2.83;;;16.30;99.90;;;;;;5069217;28;20039;-40
2022/05/25 23:03:18;;;;;;;3.63;3.33;;;16.30;99.90;;;;;;5069461;28;20033;-40
2022/05/25 23:05:44;;;;;;;3.70;3.40;;;16.30;99.90;;;;;;5068660;28;20032;-40
2022/05/25 23:08:09;;;;;;;4.07;2.80;;;16.20;99.90;;;;;;5068910;28;20040;-39
2022/05/25 23:10:35;;;;;;;4.13;3.45;;;16.20;99.90;;;;;;5068594;28;20024;-40
2022/05/25 23:13:01;;;;;;;4.15;2.80;;;16.20;99.90;;;;;;5069436;28;20139;-41
2022/05/25 23:15:27;;;;;;;4.88;3.47;;;16.20;99.90;;;;;;5068686;28;20012;-41
2022/05/25 23:17:53;;;;;;;3.25;3.00;;;16.20;99.90;;;;;;5069747;28;20355;-45
2022/05/25 23:20:20;;;;;;;4.68;3.33;;;16.20;99.90;;;;;;5068344;28;20013;-41
2022/05/25 23:22:45;;;;;;;4.05;3.60;;;16.20;99.90;;;;;;5069241;28;20117;-41
2022/05/25 23:25:11;;;;;;;4.60;3.10;;;16.20;99.90;;;;;;5068990;28;20040;-41
2022/05/25 23:27:42;;;;;;;6.45;4.22;;;16.20;99.90;;;;;;5067800;28;20375;-39
2022/05/25 23:30:19;;;;;;;5.30;4.03;;;16.30;99.90;;;;;;5069318;28;20097;-41
2022/05/25 23:32:46;;;;;;;4.72;3.90;;;16.20;99.90;;;;;;5068599;28;20024;-40
2022/05/25 23:35:14;;;;;;;7.53;4.53;;;16.30;99.90;;;;;;5068250;28;20028;-42
2022/05/25 23:37:42;;;;;;;6.47;3.83;;;16.30;99.90;;;;;;5068838;28;20112;-40
2022/05/25 23:40:08;;;;;;;7.13;4.30;;;16.30;99.90;;;;;;5068572;28;20020;-42
2022/05/25 23:45:18;;;;;;;5.10;3.90;;;16.30;99.90;;;;;;5068705;28;20043;-40
2022/05/25 23:47:44;;;;;;;5.25;3.40;;;16.30;99.90;;;;;;5067976;28;20064;-40
2022/05/25 23:50:13;;;;;;;3.83;3.42;;;16.30;99.90;;;;;;5065644;28;20029;-42
2022/05/25 23:52:38;;;;;;;4.20;3.80;;;16.30;99.90;;;;;;5064795;28;20163;-40
2022/05/25 23:55:06;;;;;;;4.40;3.58;;;16.30;99.90;;;;;;5068785;28;20127;-41
2022/05/25 23:57:32;;;;;;;4.75;3.78;;;16.30;99.90;;;;;;5067012;28;20555;-42
2022/05/25 23:59:58;;;;;;;4.65;4.05;;;16.30;99.90;;;;;;5069212;28;20123;-40
